sensor_id;sensor_type;location;lat;lon;timestamp;temperature;humidity
39675;DHT22;27790;50.840;4.386;2024-01-15T00:01:14;4.10;99.90
39675;DHT22;27790;50.840;4.386;2024-01-15T00:03:40;4.10;99.90
39675;DHT22;27790;50.840;4.386;2024-01-15T00:06:05;4.10;99.90
39675;DHT22;27790;50.840;4.386;2024-01-15T00:08:31;4.20;99.90
39675;DHT22;27790;50.840;4.386;2024-01-15T00:10:56;4.10;99.90
39675;DHT22;27790;50.840;4.386;2024-01-15T00:13:22;4.20;99.90
39675;DHT22;27790;50.840;4.386;2024-01-15T00:15:48;4.20;99.90
39675;DHT22;27790;50.840;4.386;2024-01-15T00:18:14;4.20;99.90
39675;DHT22;27790;50.840;4.386;2024-01-15T00:20:39;4.20;99.90
39675;DHT22;27790;50.840;4.386;2024-01-15T00:23:05;4.20;99.90
39675;DHT22;27790;50.840;4.386;2024-01-15T00:25:30;4.10;99.90
39675;DHT22;27790;50.840;4.386;2024-01-15T00:27:56;4.20;99.90
39675;DHT22;27790;50.840;4.386;2024-01-15T00:30:21;4.10;99.90
39675;DHT22;27790;50.840;4.386;2024-01-15T00:32:47;4.20;99.90
39675;DHT22;27790;50.840;4.386;2024-01-15T00:35:13;4.10;99.90
39675;DHT22;27790;50.840;4.386;2024-01-15T00:37:38;4.10;99.90
39675;DHT22;27790;50.840;4.386;2024-01-15T00:40:05;4.10;99.90
39675;DHT22;27790;50.840;4.386;2024-01-15T00:42:31;4.10;99.90
39675;DHT22;27790;50.840;4.386;2024-01-15T00:44:56;4.10;99.90
39675;DHT22;27790;50.840;4.386;2024-01-15T00:47:22;4.20;99.90
39675;DHT22;27790;50.840;4.386;2024-01-15T00:49:47;4.20;99.90
39675;DHT22;27790;50.840;4.386;2024-01-15T00:52:13;4.30;99.90
39675;DHT22;27790;50.840;4.386;2024-01-15T00:54:38;4.30;99.90
39675;DHT22;27790;50.840;4.386;2024-01-15T00:57:05;4.20;99.90
39675;DHT22;27790;50.840;4.386;2024-01-15T00:59:31;4.20;99.90
39675;DHT22;27790;50.840;4.386;2024-01-15T01:01:56;4.20;99.90
39675;DHT22;27790;50.840;4.386;2024-01-15T01:04:22;4.30;99.90
39675;DHT22;27790;50.840;4.386;2024-01-15T01:06:47;4.30;99.90
39675;DHT22;27790;50.840;4.386;2024-01-15T01:09:13;4.30;99.90
39675;DHT22;27790;50.840;4.386;2024-01-15T01:11:39;4.50;99.90
39675;DHT22;27790;50.840;4.386;2024-01-15T01:14:05;4.50;99.90
39675;DHT22;27790;50.840;4.386;2024-01-15T01:16:31;4.50;99.90
39675;DHT22;27790;50.840;4.386;2024-01-15T01:18:56;4.60;99.90
39675;DHT22;27790;50.840;4.386;2024-01-15T01:21:22;4.60;99.90
39675;DHT22;27790;50.840;4.386;2024-01-15T01:23:47;4.60;99.90
39675;DHT22;27790;50.840;4.386;2024-01-15T01:26:17;4.70;99.90
39675;DHT22;27790;50.840;4.386;2024-01-15T01:28:43;4.60;99.90
39675;DHT22;27790;50.840;4.386;2024-01-15T01:31:08;4.60;99.90
39675;DHT22;27790;50.840;4.386;2024-01-15T01:33:34;4.60;99.90
39675;DHT22;27790;50.840;4.386;2024-01-15T01:35:59;4.60;99.90
39675;DHT22;27790;50.840;4.386;2024-01-15T01:38:25;4.70;99.90
39675;DHT22;27790;50.840;4.386;2024-01-15T01:40:50;4.70;99.90
39675;DHT22;27790;50.840;4.386;2024-01-15T01:43:16;4.70;99.90
39675;DHT22;27790;50.840;4.386;2024-01-15T01:45:41;4.70;99.90
39675;DHT22;27790;50.840;4.386;2024-01-15T01:48:07;4.80;99.90
39675;DHT22;27790;50.840;4.386;2024-01-15T01:50:33;4.80;99.90
39675;DHT22;27790;50.840;4.386;2024-01-15T01:53:00;4.80;99.90
39675;DHT22;27790;50.840;4.386;2024-01-15T01:55:27;4.70;99.90
39675;DHT22;27790;50.840;4.386;2024-01-15T01:57:55;4.70;99.90
39675;DHT22;27790;50.840;4.386;2024-01-15T02:00:20;4.70;99.90
39675;DHT22;27790;50.840;4.386;2024-01-15T02:02:46;4.60;99.90
39675;DHT22;27790;50.840;4.386;2024-01-15T02:05:13;4.70;99.90
39675;DHT22;27790;50.840;4.386;2024-01-15T02:07:39;4.70;99.90
39675;DHT22;27790;50.840;4.386;2024-01-15T02:10:06;4.70;99.90
39675;DHT22;27790;50.840;4.386;2024-01-15T02:12:32;4.70;99.90
39675;DHT22;27790;50.840;4.386;2024-01-15T02:14:57;4.70;99.90
39675;DHT22;27790;50.840;4.386;2024-01-15T02:17:23;4.70;99.90
39675;DHT22;27790;50.840;4.386;2024-01-15T02:19:49;4.80;99.90
39675;DHT22;27790;50.840;4.386;2024-01-15T02:22:15;4.80;99.90
39675;DHT22;27790;50.840;4.386;2024-01-15T02:24:41;4.80;99.90
39675;DHT22;27790;50.840;4.386;2024-01-15T02:27:06;4.80;99.90
39675;DHT22;27790;50.840;4.386;2024-01-15T02:29:32;4.90;99.90
39675;DHT22;27790;50.840;4.386;2024-01-15T02:31:57;4.90;99.90
39675;DHT22;27790;50.840;4.386;2024-01-15T02:34:23;4.90;99.90
39675;DHT22;27790;50.840;4.386;2024-01-15T02:36:48;5.00;99.90
39675;DHT22;27790;50.840;4.386;2024-01-15T02:39:14;4.90;99.90
39675;DHT22;27790;50.840;4.386;2024-01-15T02:41:40;4.80;99.90
39675;DHT22;27790;50.840;4.386;2024-01-15T02:44:05;4.80;99.90
39675;DHT22;27790;50.840;4.386;2024-01-15T02:46:31;4.80;99.90
39675;DHT22;27790;50.840;4.386;2024-01-15T02:48:56;4.70;99.90
39675;DHT22;27790;50.840;4.386;2024-01-15T02:51:22;4.70;99.90
39675;DHT22;27790;50.840;4.386;2024-01-15T02:53:49;4.70;99.90
39675;DHT22;27790;50.840;4.386;2024-01-15T02:56:15;4.80;99.90
39675;DHT22;27790;50.840;4.386;2024-01-15T02:58:41;4.80;99.90
39675;DHT22;27790;50.840;4.386;2024-01-15T03:01:06;4.70;99.90
39675;DHT22;27790;50.840;4.386;2024-01-15T03:03:32;4.80;99.90
39675;DHT22;27790;50.840;4.386;2024-01-15T03:05:58;4.80;99.90
39675;DHT22;27790;50.840;4.386;2024-01-15T03:08:24;4.80;99.90
39675;DHT22;27790;50.840;4.386;2024-01-15T03:10:49;4.80;99.90
39675;DHT22;27790;50.840;4.386;2024-01-15T03:13:15;4.70;99.90
39675;DHT22;27790;50.840;4.386;2024-01-15T03:15:42;4.70;99.90
39675;DHT22;27790;50.840;4.386;2024-01-15T03:18:08;4.70;99.90
39675;DHT22;27790;50.840;4.386;2024-01-15T03:20:33;4.70;99.90
39675;DHT22;27790;50.840;4.386;2024-01-15T03:22:59;4.80;99.90
39675;DHT22;27790;50.840;4.386;2024-01-15T03:25:24;4.80;99.90
39675;DHT22;27790;50.840;4.386;2024-01-15T03:27:50;4.80;99.90
39675;DHT22;27790;50.840;4.386;2024-01-15T03:30:15;4.80;99.90
39675;DHT22;27790;50.840;4.386;2024-01-15T03:32:41;4.80;99.90
39675;DHT22;27790;50.840;4.386;2024-01-15T03:35:07;4.80;99.90
39675;DHT22;27790;50.840;4.386;2024-01-15T03:37:32;4.80;99.90
39675;DHT22;27790;50.840;4.386;2024-01-15T03:39:58;4.80;99.90
39675;DHT22;27790;50.840;4.386;2024-01-15T03:42:23;4.80;99.90
39675;DHT22;27790;50.840;4.386;2024-01-15T03:44:49;4.80;99.90
39675;DHT22;27790;50.840;4.386;2024-01-15T03:47:14;4.70;99.90
39675;DHT22;27790;50.840;4.386;2024-01-15T03:49:40;4.80;99.90
39675;DHT22;27790;50.840;4.386;2024-01-15T03:52:05;4.80;99.90
39675;DHT22;27790;50.840;4.386;2024-01-15T03:54:31;4.80;99.90
39675;DHT22;27790;50.840;4.386;2024-01-15T03:56:56;4.80;99.90
39675;DHT22;27790;50.840;4.386;2024-01-15T03:59:22;4.70;99.90
39675;DHT22;27790;50.840;4.386;2024-01-15T04:01:49;4.60;99.90
39675;DHT22;27790;50.840;4.386;2024-01-15T04:04:16;4.60;99.90
39675;DHT22;27790;50.840;4.386;2024-01-15T04:06:41;4.70;99.90
39675;DHT22;27790;50.840;4.386;2024-01-15T04:09:07;4.70;99.90
39675;DHT22;27790;50.840;4.386;2024-01-15T04:11:32;4.70;99.90
39675;DHT22;27790;50.840;4.386;2024-01-15T04:13:58;4.60;99.90
39675;DHT22;27790;50.840;4.386;2024-01-15T04:16:23;4.60;99.90
39675;DHT22;27790;50.840;4.386;2024-01-15T04:18:49;4.60;99.90
39675;DHT22;27790;50.840;4.386;2024-01-15T04:21:17;4.60;99.90
39675;DHT22;27790;50.840;4.386;2024-01-15T04:23:42;4.60;99.90
39675;DHT22;27790;50.840;4.386;2024-01-15T04:26:08;4.70;99.90
39675;DHT22;27790;50.840;4.386;2024-01-15T04:28:34;4.70;99.90
39675;DHT22;27790;50.840;4.386;2024-01-15T04:30:59;4.70;99.90
39675;DHT22;27790;50.840;4.386;2024-01-15T04:33:25;4.70;99.90
39675;DHT22;27790;50.840;4.386;2024-01-15T04:35:50;4.70;99.90
39675;DHT22;27790;50.840;4.386;2024-01-15T04:38:16;4.70;99.90
39675;DHT22;27790;50.840;4.386;2024-01-15T04:40:41;4.70;99.90
39675;DHT22;27790;50.840;4.386;2024-01-15T04:43:07;4.70;99.90
39675;DHT22;27790;50.840;4.386;2024-01-15T04:45:32;4.70;99.90
39675;DHT22;27790;50.840;4.386;2024-01-15T04:47:58;4.80;99.90
39675;DHT22;27790;50.840;4.386;2024-01-15T04:50:23;4.80;99.90
39675;DHT22;27790;50.840;4.386;2024-01-15T04:52:50;4.80;99.90
39675;DHT22;27790;50.840;4.386;2024-01-15T04:55:15;4.90;99.90
39675;DHT22;27790;50.840;4.386;2024-01-15T04:57:41;4.90;99.90
39675;DHT22;27790;50.840;4.386;2024-01-15T05:00:07;4.90;99.90
39675;DHT22;27790;50.840;4.386;2024-01-15T05:02:33;5.00;99.90
39675;DHT22;27790;50.840;4.386;2024-01-15T05:04:58;4.90;99.90
39675;DHT22;27790;50.840;4.386;2024-01-15T05:07:24;5.00;99.90
39675;DHT22;27790;50.840;4.386;2024-01-15T05:09:49;4.90;99.90
39675;DHT22;27790;50.840;4.386;2024-01-15T05:12:15;4.90;99.90
39675;DHT22;27790;50.840;4.386;2024-01-15T05:14:41;4.90;99.90
39675;DHT22;27790;50.840;4.386;2024-01-15T05:17:06;4.90;99.90
39675;DHT22;27790;50.840;4.386;2024-01-15T05:19:32;4.80;99.90
39675;DHT22;27790;50.840;4.386;2024-01-15T05:21:57;4.70;99.90
39675;DHT22;27790;50.840;4.386;2024-01-15T05:24:23;4.60;99.90
39675;DHT22;27790;50.840;4.386;2024-01-15T05:26:48;4.60;99.90
39675;DHT22;27790;50.840;4.386;2024-01-15T05:29:14;4.40;99.90
39675;DHT22;27790;50.840;4.386;2024-01-15T05:31:39;4.40;99.90
39675;DHT22;27790;50.840;4.386;2024-01-15T05:34:05;4.40;99.90
39675;DHT22;27790;50.840;4.386;2024-01-15T05:36:30;4.40;99.90
39675;DHT22;27790;50.840;4.386;2024-01-15T05:38:56;4.30;99.90
39675;DHT22;27790;50.840;4.386;2024-01-15T05:41:22;4.30;99.90
39675;DHT22;27790;50.840;4.386;2024-01-15T05:43:47;4.20;99.90
39675;DHT22;27790;50.840;4.386;2024-01-15T05:46:13;4.20;99.90
39675;DHT22;27790;50.840;4.386;2024-01-15T05:48:39;4.30;99.90
39675;DHT22;27790;50.840;4.386;2024-01-15T05:51:04;4.30;99.90
39675;DHT22;27790;50.840;4.386;2024-01-15T05:53:30;4.30;99.90
39675;DHT22;27790;50.840;4.386;2024-01-15T05:55:55;4.20;99.90
39675;DHT22;27790;50.840;4.386;2024-01-15T05:58:22;4.20;99.90
39675;DHT22;27790;50.840;4.386;2024-01-15T06:00:47;4.20;99.90
39675;DHT22;27790;50.840;4.386;2024-01-15T06:03:15;4.10;99.90
39675;DHT22;27790;50.840;4.386;2024-01-15T06:05:40;4.20;99.90
39675;DHT22;27790;50.840;4.386;2024-01-15T06:08:06;4.20;99.90
39675;DHT22;27790;50.840;4.386;2024-01-15T06:10:31;4.20;99.90
39675;DHT22;27790;50.840;4.386;2024-01-15T06:12:57;4.20;99.90
39675;DHT22;27790;50.840;4.386;2024-01-15T06:15:23;4.10;99.90
39675;DHT22;27790;50.840;4.386;2024-01-15T06:17:48;4.10;99.90
39675;DHT22;27790;50.840;4.386;2024-01-15T06:20:14;4.00;99.90
39675;DHT22;27790;50.840;4.386;2024-01-15T06:22:39;4.00;99.90
39675;DHT22;27790;50.840;4.386;2024-01-15T06:25:07;3.90;99.90
39675;DHT22;27790;50.840;4.386;2024-01-15T06:27:32;3.90;99.90
39675;DHT22;27790;50.840;4.386;2024-01-15T06:29:58;3.80;99.90
39675;DHT22;27790;50.840;4.386;2024-01-15T06:32:24;3.80;99.90
39675;DHT22;27790;50.840;4.386;2024-01-15T06:34:49;3.70;99.90
39675;DHT22;27790;50.840;4.386;2024-01-15T06:37:15;3.70;99.90
39675;DHT22;27790;50.840;4.386;2024-01-15T06:39:40;3.60;99.90
39675;DHT22;27790;50.840;4.386;2024-01-15T06:42:06;3.50;99.90
39675;DHT22;27790;50.840;4.386;2024-01-15T06:44:32;3.50;99.90
39675;DHT22;27790;50.840;4.386;2024-01-15T06:46:57;3.50;99.90
39675;DHT22;27790;50.840;4.386;2024-01-15T06:49:30;3.40;99.90
39675;DHT22;27790;50.840;4.386;2024-01-15T06:51:56;3.40;99.90
39675;DHT22;27790;50.840;4.386;2024-01-15T06:54:21;3.40;99.90
39675;DHT22;27790;50.840;4.386;2024-01-15T06:56:47;3.30;99.90
39675;DHT22;27790;50.840;4.386;2024-01-15T06:59:12;3.20;99.90
39675;DHT22;27790;50.840;4.386;2024-01-15T07:01:38;3.20;99.90
39675;DHT22;27790;50.840;4.386;2024-01-15T07:04:04;3.20;99.90
39675;DHT22;27790;50.840;4.386;2024-01-15T07:06:29;3.20;99.90
39675;DHT22;27790;50.840;4.386;2024-01-15T07:08:56;3.30;99.90
39675;DHT22;27790;50.840;4.386;2024-01-15T07:11:21;3.20;99.90
39675;DHT22;27790;50.840;4.386;2024-01-15T07:13:47;3.20;99.90
39675;DHT22;27790;50.840;4.386;2024-01-15T07:16:13;3.20;99.90
39675;DHT22;27790;50.840;4.386;2024-01-15T07:18:39;3.20;99.90
39675;DHT22;27790;50.840;4.386;2024-01-15T07:21:04;3.20;99.90
39675;DHT22;27790;50.840;4.386;2024-01-15T07:23:31;3.10;99.90
39675;DHT22;27790;50.840;4.386;2024-01-15T07:25:57;3.10;99.90
39675;DHT22;27790;50.840;4.386;2024-01-15T07:28:22;3.20;99.90
39675;DHT22;27790;50.840;4.386;2024-01-15T07:30:48;3.20;99.90
39675;DHT22;27790;50.840;4.386;2024-01-15T07:33:14;3.10;99.90
39675;DHT22;27790;50.840;4.386;2024-01-15T07:35:39;3.10;99.90
39675;DHT22;27790;50.840;4.386;2024-01-15T07:38:05;3.10;99.90
39675;DHT22;27790;50.840;4.386;2024-01-15T07:40:30;3.10;99.90
39675;DHT22;27790;50.840;4.386;2024-01-15T07:42:56;3.10;99.90
39675;DHT22;27790;50.840;4.386;2024-01-15T07:45:21;3.10;99.90
39675;DHT22;27790;50.840;4.386;2024-01-15T07:47:47;3.10;99.90
39675;DHT22;27790;50.840;4.386;2024-01-15T07:50:12;3.20;99.90
39675;DHT22;27790;50.840;4.386;2024-01-15T07:52:40;3.20;99.90
39675;DHT22;27790;50.840;4.386;2024-01-15T07:55:07;3.30;99.90
39675;DHT22;27790;50.840;4.386;2024-01-15T07:57:33;3.40;99.90
39675;DHT22;27790;50.840;4.386;2024-01-15T07:59:58;3.50;99.90
39675;DHT22;27790;50.840;4.386;2024-01-15T08:02:24;3.50;99.90
39675;DHT22;27790;50.840;4.386;2024-01-15T08:04:49;3.50;99.90
39675;DHT22;27790;50.840;4.386;2024-01-15T08:07:15;3.60;99.90
39675;DHT22;27790;50.840;4.386;2024-01-15T08:09:40;3.70;99.90
39675;DHT22;27790;50.840;4.386;2024-01-15T08:12:07;3.70;99.90
39675;DHT22;27790;50.840;4.386;2024-01-15T08:14:32;3.80;99.90
39675;DHT22;27790;50.840;4.386;2024-01-15T08:16:58;3.70;99.90
39675;DHT22;27790;50.840;4.386;2024-01-15T08:19:24;3.80;99.90
39675;DHT22;27790;50.840;4.386;2024-01-15T08:21:49;3.80;99.90
39675;DHT22;27790;50.840;4.386;2024-01-15T08:24:15;3.90;99.90
39675;DHT22;27790;50.840;4.386;2024-01-15T08:26:42;4.00;99.90
39675;DHT22;27790;50.840;4.386;2024-01-15T08:29:07;4.10;99.90
39675;DHT22;27790;50.840;4.386;2024-01-15T08:31:33;4.10;99.90
39675;DHT22;27790;50.840;4.386;2024-01-15T08:33:58;4.20;99.90
39675;DHT22;27790;50.840;4.386;2024-01-15T08:36:25;4.30;99.90
39675;DHT22;27790;50.840;4.386;2024-01-15T08:38:50;4.40;99.90
39675;DHT22;27790;50.840;4.386;2024-01-15T08:41:16;4.50;99.90
39675;DHT22;27790;50.840;4.386;2024-01-15T08:43:42;4.60;99.90
39675;DHT22;27790;50.840;4.386;2024-01-15T08:46:07;4.70;99.90
39675;DHT22;27790;50.840;4.386;2024-01-15T08:48:33;4.60;99.90
39675;DHT22;27790;50.840;4.386;2024-01-15T08:50:58;4.60;99.90
39675;DHT22;27790;50.840;4.386;2024-01-15T08:53:24;4.50;99.90
39675;DHT22;27790;50.840;4.386;2024-01-15T08:55:49;4.50;99.90
39675;DHT22;27790;50.840;4.386;2024-01-15T08:58:15;4.60;99.90
39675;DHT22;27790;50.840;4.386;2024-01-15T09:00:41;4.60;99.90
39675;DHT22;27790;50.840;4.386;2024-01-15T09:03:07;4.60;99.90
39675;DHT22;27790;50.840;4.386;2024-01-15T09:05:33;4.70;99.90
39675;DHT22;27790;50.840;4.386;2024-01-15T09:07:59;4.70;99.90
39675;DHT22;27790;50.840;4.386;2024-01-15T09:10:24;4.80;99.80
39675;DHT22;27790;50.840;4.386;2024-01-15T09:12:50;4.70;99.90
39675;DHT22;27790;50.840;4.386;2024-01-15T09:15:16;4.80;99.80
39675;DHT22;27790;50.840;4.386;2024-01-15T09:17:42;4.80;99.70
39675;DHT22;27790;50.840;4.386;2024-01-15T09:20:08;4.70;99.70
39675;DHT22;27790;50.840;4.386;2024-01-15T09:22:35;4.80;99.40
39675;DHT22;27790;50.840;4.386;2024-01-15T09:25:01;4.60;99.50
39675;DHT22;27790;50.840;4.386;2024-01-15T09:27:26;4.70;99.50
39675;DHT22;27790;50.840;4.386;2024-01-15T09:29:52;4.60;99.20
39675;DHT22;27790;50.840;4.386;2024-01-15T09:32:18;4.70;99.50
39675;DHT22;27790;50.840;4.386;2024-01-15T09:34:45;4.80;99.50
39675;DHT22;27790;50.840;4.386;2024-01-15T09:37:11;4.80;99.30
39675;DHT22;27790;50.840;4.386;2024-01-15T09:39:37;4.90;99.00
39675;DHT22;27790;50.840;4.386;2024-01-15T09:42:03;4.90;99.20
39675;DHT22;27790;50.840;4.386;2024-01-15T09:44:29;4.90;98.90
39675;DHT22;27790;50.840;4.386;2024-01-15T09:46:56;4.90;98.70
39675;DHT22;27790;50.840;4.386;2024-01-15T09:49:22;4.90;98.70
39675;DHT22;27790;50.840;4.386;2024-01-15T09:51:48;5.00;98.50
39675;DHT22;27790;50.840;4.386;2024-01-15T09:54:15;5.00;98.60
39675;DHT22;27790;50.840;4.386;2024-01-15T09:56:45;5.10;98.20
39675;DHT22;27790;50.840;4.386;2024-01-15T09:59:12;5.00;98.40
39675;DHT22;27790;50.840;4.386;2024-01-15T10:01:39;5.10;98.20
39675;DHT22;27790;50.840;4.386;2024-01-15T10:04:06;5.20;98.10
39675;DHT22;27790;50.840;4.386;2024-01-15T10:06:32;5.40;98.10
39675;DHT22;27790;50.840;4.386;2024-01-15T10:08:58;5.70;97.80
39675;DHT22;27790;50.840;4.386;2024-01-15T10:11:24;5.80;97.50
39675;DHT22;27790;50.840;4.386;2024-01-15T10:13:50;5.90;97.40
39675;DHT22;27790;50.840;4.386;2024-01-15T10:16:20;6.00;97.10
39675;DHT22;27790;50.840;4.386;2024-01-15T10:18:47;6.00;96.80
39675;DHT22;27790;50.840;4.386;2024-01-15T10:21:13;5.80;96.90
39675;DHT22;27790;50.840;4.386;2024-01-15T10:23:41;5.70;96.90
39675;DHT22;27790;50.840;4.386;2024-01-15T10:26:07;5.60;97.10
39675;DHT22;27790;50.840;4.386;2024-01-15T10:28:33;5.40;97.20
39675;DHT22;27790;50.840;4.386;2024-01-15T10:30:59;5.40;96.90
39675;DHT22;27790;50.840;4.386;2024-01-15T10:33:26;5.40;97.50
39675;DHT22;27790;50.840;4.386;2024-01-15T10:36:00;5.40;97.10
39675;DHT22;27790;50.840;4.386;2024-01-15T10:38:26;5.30;97.30
39675;DHT22;27790;50.840;4.386;2024-01-15T10:40:55;5.40;97.30
39675;DHT22;27790;50.840;4.386;2024-01-15T10:43:21;5.30;97.10
39675;DHT22;27790;50.840;4.386;2024-01-15T10:45:50;5.30;97.20
39675;DHT22;27790;50.840;4.386;2024-01-15T10:48:19;5.20;97.20
39675;DHT22;27790;50.840;4.386;2024-01-15T10:50:46;5.30;97.10
39675;DHT22;27790;50.840;4.386;2024-01-15T10:53:17;5.40;97.10
39675;DHT22;27790;50.840;4.386;2024-01-15T10:55:43;5.30;97.30
39675;DHT22;27790;50.840;4.386;2024-01-15T10:58:09;5.50;97.00
39675;DHT22;27790;50.840;4.386;2024-01-15T11:00:35;5.70;96.90
39675;DHT22;27790;50.840;4.386;2024-01-15T11:03:03;5.70;96.80
39675;DHT22;27790;50.840;4.386;2024-01-15T11:05:34;5.80;96.80
39675;DHT22;27790;50.840;4.386;2024-01-15T11:08:01;5.90;96.50
39675;DHT22;27790;50.840;4.386;2024-01-15T11:10:46;6.10;96.10
39675;DHT22;27790;50.840;4.386;2024-01-15T11:13:15;6.40;96.20
39675;DHT22;27790;50.840;4.386;2024-01-15T11:16:04;6.50;95.70
39675;DHT22;27790;50.840;4.386;2024-01-15T11:18:37;6.50;95.70
39675;DHT22;27790;50.840;4.386;2024-01-15T11:23:45;6.50;95.20
39675;DHT22;27790;50.840;4.386;2024-01-15T11:26:33;6.50;95.40
39675;DHT22;27790;50.840;4.386;2024-01-15T11:29:04;6.40;95.20
39675;DHT22;27790;50.840;4.386;2024-01-15T11:34:16;6.20;95.30
39675;DHT22;27790;50.840;4.386;2024-01-15T11:42:01;6.00;95.00
39675;DHT22;27790;50.840;4.386;2024-01-15T11:44:29;5.90;95.30
39675;DHT22;27790;50.840;4.386;2024-01-15T11:47:02;5.90;95.50
39675;DHT22;27790;50.840;4.386;2024-01-15T11:52:05;5.70;94.70
39675;DHT22;27790;50.840;4.386;2024-01-15T11:54:33;5.70;94.40
39675;DHT22;27790;50.840;4.386;2024-01-15T11:57:04;5.80;94.60
39675;DHT22;27790;50.840;4.386;2024-01-15T11:59:34;5.80;95.10
39675;DHT22;27790;50.840;4.386;2024-01-15T12:02:00;5.90;95.40
39675;DHT22;27790;50.840;4.386;2024-01-15T12:04:27;6.00;95.00
39675;DHT22;27790;50.840;4.386;2024-01-15T12:06:52;6.10;95.00
39675;DHT22;27790;50.840;4.386;2024-01-15T12:09:21;6.10;94.50
39675;DHT22;27790;50.840;4.386;2024-01-15T12:11:57;5.90;94.40
39675;DHT22;27790;50.840;4.386;2024-01-15T12:14:31;5.90;94.50
39675;DHT22;27790;50.840;4.386;2024-01-15T12:16:56;5.90;94.60
39675;DHT22;27790;50.840;4.386;2024-01-15T12:19:22;6.00;94.60
39675;DHT22;27790;50.840;4.386;2024-01-15T12:21:50;6.10;94.90
39675;DHT22;27790;50.840;4.386;2024-01-15T12:24:17;6.20;94.90
39675;DHT22;27790;50.840;4.386;2024-01-15T12:26:42;6.30;94.60
39675;DHT22;27790;50.840;4.386;2024-01-15T12:29:10;6.40;94.00
39675;DHT22;27790;50.840;4.386;2024-01-15T12:31:36;6.30;94.00
39675;DHT22;27790;50.840;4.386;2024-01-15T12:34:02;6.30;94.40
39675;DHT22;27790;50.840;4.386;2024-01-15T12:36:30;6.40;94.50
39675;DHT22;27790;50.840;4.386;2024-01-15T12:38:59;6.50;94.50
39675;DHT22;27790;50.840;4.386;2024-01-15T12:41:25;6.50;94.00
39675;DHT22;27790;50.840;4.386;2024-01-15T12:43:51;6.40;94.30
39675;DHT22;27790;50.840;4.386;2024-01-15T12:46:16;6.30;94.10
39675;DHT22;27790;50.840;4.386;2024-01-15T12:48:42;6.20;94.30
39675;DHT22;27790;50.840;4.386;2024-01-15T12:51:08;6.10;94.60
39675;DHT22;27790;50.840;4.386;2024-01-15T12:53:33;6.00;94.90
39675;DHT22;27790;50.840;4.386;2024-01-15T12:55:59;6.00;95.70
39675;DHT22;27790;50.840;4.386;2024-01-15T12:58:25;6.00;95.50
39675;DHT22;27790;50.840;4.386;2024-01-15T13:00:50;6.10;95.50
39675;DHT22;27790;50.840;4.386;2024-01-15T13:03:16;6.10;95.20
39675;DHT22;27790;50.840;4.386;2024-01-15T13:05:42;6.10;95.50
39675;DHT22;27790;50.840;4.386;2024-01-15T13:08:07;6.00;95.40
39675;DHT22;27790;50.840;4.386;2024-01-15T13:10:33;6.00;95.60
39675;DHT22;27790;50.840;4.386;2024-01-15T13:12:58;6.10;95.50
39675;DHT22;27790;50.840;4.386;2024-01-15T13:15:24;5.90;96.40
39675;DHT22;27790;50.840;4.386;2024-01-15T13:17:50;5.80;96.60
39675;DHT22;27790;50.840;4.386;2024-01-15T13:20:15;5.70;97.00
39675;DHT22;27790;50.840;4.386;2024-01-15T13:22:41;5.70;97.30
39675;DHT22;27790;50.840;4.386;2024-01-15T13:25:09;5.90;97.30
39675;DHT22;27790;50.840;4.386;2024-01-15T13:27:34;6.00;97.20
39675;DHT22;27790;50.840;4.386;2024-01-15T13:30:03;5.90;97.00
39675;DHT22;27790;50.840;4.386;2024-01-15T13:32:29;5.80;96.80
39675;DHT22;27790;50.840;4.386;2024-01-15T13:34:56;5.80;96.60
39675;DHT22;27790;50.840;4.386;2024-01-15T13:37:22;5.80;96.50
39675;DHT22;27790;50.840;4.386;2024-01-15T13:39:50;5.80;96.50
39675;DHT22;27790;50.840;4.386;2024-01-15T13:42:17;5.90;96.70
39675;DHT22;27790;50.840;4.386;2024-01-15T13:44:42;6.00;96.70
39675;DHT22;27790;50.840;4.386;2024-01-15T13:47:08;6.10;96.50
39675;DHT22;27790;50.840;4.386;2024-01-15T13:49:34;6.20;96.40
39675;DHT22;27790;50.840;4.386;2024-01-15T13:52:01;6.40;96.10
39675;DHT22;27790;50.840;4.386;2024-01-15T13:54:29;6.50;95.90
39675;DHT22;27790;50.840;4.386;2024-01-15T13:56:56;6.50;96.10
39675;DHT22;27790;50.840;4.386;2024-01-15T13:59:22;6.50;95.70
39675;DHT22;27790;50.840;4.386;2024-01-15T14:01:48;6.50;95.90
39675;DHT22;27790;50.840;4.386;2024-01-15T14:04:14;6.40;96.10
39675;DHT22;27790;50.840;4.386;2024-01-15T14:06:39;6.50;96.10
39675;DHT22;27790;50.840;4.386;2024-01-15T14:09:05;6.50;96.70
39675;DHT22;27790;50.840;4.386;2024-01-15T14:11:31;6.40;97.00
39675;DHT22;27790;50.840;4.386;2024-01-15T14:13:56;6.20;97.00
39675;DHT22;27790;50.840;4.386;2024-01-15T14:16:22;6.00;97.60
39675;DHT22;27790;50.840;4.386;2024-01-15T14:18:47;5.90;97.80
39675;DHT22;27790;50.840;4.386;2024-01-15T14:21:13;6.00;97.70
39675;DHT22;27790;50.840;4.386;2024-01-15T14:23:39;6.00;97.40
39675;DHT22;27790;50.840;4.386;2024-01-15T14:26:05;6.00;97.40
39675;DHT22;27790;50.840;4.386;2024-01-15T14:28:31;6.20;97.30
39675;DHT22;27790;50.840;4.386;2024-01-15T14:30:56;6.20;97.10
39675;DHT22;27790;50.840;4.386;2024-01-15T14:33:25;6.10;97.00
39675;DHT22;27790;50.840;4.386;2024-01-15T14:35:51;6.00;97.40
39675;DHT22;27790;50.840;4.386;2024-01-15T14:38:16;5.70;98.40
39675;DHT22;27790;50.840;4.386;2024-01-15T14:40:42;5.40;99.00
39675;DHT22;27790;50.840;4.386;2024-01-15T14:43:09;5.10;99.90
39675;DHT22;27790;50.840;4.386;2024-01-15T14:45:35;4.80;99.90
39675;DHT22;27790;50.840;4.386;2024-01-15T14:48:00;4.60;99.90
39675;DHT22;27790;50.840;4.386;2024-01-15T14:50:26;4.40;99.90
39675;DHT22;27790;50.840;4.386;2024-01-15T14:52:52;4.30;99.90
39675;DHT22;27790;50.840;4.386;2024-01-15T14:55:17;4.30;99.90
39675;DHT22;27790;50.840;4.386;2024-01-15T14:57:43;4.30;99.90
39675;DHT22;27790;50.840;4.386;2024-01-15T15:00:08;4.30;99.90
39675;DHT22;27790;50.840;4.386;2024-01-15T15:02:35;4.20;99.90
39675;DHT22;27790;50.840;4.386;2024-01-15T15:05:02;4.20;99.90
39675;DHT22;27790;50.840;4.386;2024-01-15T15:07:27;4.20;99.90
39675;DHT22;27790;50.840;4.386;2024-01-15T15:09:53;4.30;99.90
39675;DHT22;27790;50.840;4.386;2024-01-15T15:12:19;4.30;99.90
39675;DHT22;27790;50.840;4.386;2024-01-15T15:14:44;4.30;99.90
39675;DHT22;27790;50.840;4.386;2024-01-15T15:17:10;4.20;99.90
39675;DHT22;27790;50.840;4.386;2024-01-15T15:19:35;4.20;99.90
39675;DHT22;27790;50.840;4.386;2024-01-15T15:22:02;4.30;99.90
39675;DHT22;27790;50.840;4.386;2024-01-15T15:24:27;4.10;99.90
39675;DHT22;27790;50.840;4.386;2024-01-15T15:26:53;4.10;99.90
39675;DHT22;27790;50.840;4.386;2024-01-15T15:29:18;4.10;99.90
39675;DHT22;27790;50.840;4.386;2024-01-15T15:31:44;4.20;99.90
39675;DHT22;27790;50.840;4.386;2024-01-15T15:34:10;4.20;99.90
39675;DHT22;27790;50.840;4.386;2024-01-15T15:36:36;4.30;99.90
39675;DHT22;27790;50.840;4.386;2024-01-15T15:39:01;4.40;99.90
39675;DHT22;27790;50.840;4.386;2024-01-15T15:41:27;4.40;99.90
39675;DHT22;27790;50.840;4.386;2024-01-15T15:43:56;4.40;99.90
39675;DHT22;27790;50.840;4.386;2024-01-15T15:46:21;4.40;99.90
39675;DHT22;27790;50.840;4.386;2024-01-15T15:48:47;4.20;99.90
39675;DHT22;27790;50.840;4.386;2024-01-15T15:51:13;4.20;99.90